createdAt,value
2018-09-30T00:00:46.265Z,78.94
2018-09-30T00:03:13.373Z,78.98
2018-09-30T00:05:41.061Z,79.34
2018-09-30T00:08:08.128Z,79.92
2018-09-30T02:40:57.558Z,88.71
2018-09-30T02:43:24.306Z,89.00
2018-09-30T02:45:50.951Z,89.10
2018-09-30T02:48:17.764Z,89.25
2018-09-30T03:17:52.142Z,89.19
2018-09-30T03:20:18.675Z,88.54
2018-09-30T04:03:46.946Z,85.91
2018-09-30T04:06:13.582Z,85.07
2018-09-30T04:28:28.831Z,83.46
2018-09-30T04:30:55.363Z,83.34
2018-09-30T04:33:21.927Z,82.93
2018-09-30T04:35:48.446Z,82.48
2018-09-30T04:38:15.365Z,81.36
2018-09-30T04:40:41.866Z,81.02
2018-09-30T04:43:08.336Z,81.25
2018-09-30T04:45:35.252Z,81.19
2018-09-30T04:48:01.716Z,81.63
2018-09-30T04:50:28.204Z,82.67
2018-09-30T04:52:55.205Z,83.47
2018-09-30T04:55:21.688Z,83.28
2018-09-30T05:12:09.498Z,86.49
2018-09-30T05:14:36.509Z,86.80
2018-09-30T05:17:03.116Z,87.17
2018-09-30T05:19:29.805Z,87.13
2018-09-30T05:21:56.458Z,87.70
2018-09-30T05:24:23.500Z,87.29
2018-09-30T05:26:50.140Z,87.62
2018-09-30T05:29:16.779Z,87.97
2018-09-30T05:31:43.250Z,87.74
2018-09-30T05:34:10.058Z,87.47
2018-09-30T05:36:36.528Z,86.88
2018-09-30T05:39:02.988Z,85.22
2018-09-30T05:41:29.460Z,85.35
2018-09-30T05:43:56.364Z,85.30
2018-09-30T05:46:22.873Z,85.97
2018-09-30T05:48:49.347Z,86.06
2018-09-30T05:51:15.849Z,86.06
2018-09-30T05:53:42.718Z,85.94
2018-09-30T05:56:09.289Z,82.81
2018-09-30T05:58:35.806Z,79.59
2018-09-30T06:01:02.616Z,78.08
2018-09-30T06:03:29.085Z,75.23
2018-09-30T06:05:55.556Z,76.26
2018-09-30T06:08:22.364Z,77.96
2018-09-30T06:10:48.837Z,79.50
2018-09-30T06:13:15.395Z,80.04
2018-09-30T06:15:43.075Z,81.08
2018-09-30T06:18:09.558Z,82.63
2018-09-30T06:20:36.956Z,81.61
2018-09-30T06:23:03.781Z,78.41
2018-09-30T06:29:43.818Z,74.14
2018-09-30T06:38:13.156Z,81.37
2018-09-30T06:40:39.791Z,83.00
2018-09-30T06:43:10.003Z,83.20
2018-09-30T06:45:36.960Z,82.62
2018-09-30T06:48:03.518Z,82.51
2018-09-30T06:50:30.061Z,82.26
2018-09-30T06:53:00.593Z,81.75
2018-09-30T06:55:28.626Z,80.80
2018-09-30T06:57:55.135Z,80.68
2018-09-30T07:25:23.485Z,75.49
2018-09-30T07:27:50.539Z,74.79
2018-09-30T07:30:18.925Z,74.03
2018-09-30T07:32:45.857Z,73.18
2018-09-30T07:35:13.327Z,73.11
2018-09-30T08:08:59.350Z,66.60
2018-09-30T08:11:26.160Z,67.21
2018-09-30T08:13:55.355Z,66.45
2018-09-30T08:16:22.771Z,66.41
2018-09-30T08:18:50.461Z,66.76
2018-09-30T08:21:18.950Z,65.77
2018-09-30T08:23:46.753Z,65.16
2018-09-30T08:28:18.767Z,64.42
2018-09-30T08:30:45.656Z,63.76
2018-09-30T08:33:12.571Z,63.16
2018-09-30T08:35:41.220Z,63.13
2018-09-30T08:38:07.726Z,62.30
2018-09-30T08:40:34.487Z,60.76
2018-09-30T08:43:01.333Z,59.54
2018-09-30T08:45:28.797Z,57.52
2018-09-30T08:47:55.456Z,58.13
2018-09-30T08:50:25.971Z,56.46
2018-09-30T08:52:52.624Z,55.96
2018-09-30T08:55:20.791Z,56.47
2018-09-30T08:57:47.976Z,55.61
2018-09-30T09:53:15.781Z,45.47
2018-09-30T10:16:54.690Z,43.12
2018-09-30T10:23:29.135Z,43.21
2018-09-30T10:25:56.180Z,43.07
2018-09-30T11:25:13.885Z,37.05
2018-09-30T11:27:40.366Z,36.65
2018-09-30T11:30:07.229Z,36.34
2018-09-30T11:32:33.736Z,37.35
2018-09-30T11:35:00.725Z,36.95
2018-09-30T11:37:27.568Z,36.17
2018-09-30T12:10:09.307Z,37.34
2018-09-30T12:12:38.284Z,37.13
2018-09-30T12:20:13.959Z,37.52
2018-09-30T12:22:40.498Z,37.99
2018-09-30T18:29:40.742Z,56.76
2018-09-30T18:41:27.472Z,57.69
2018-09-30T18:43:56.476Z,58.59
2018-09-30T19:17:08.234Z,60.67
2018-09-30T19:19:35.416Z,60.62
2018-09-30T19:24:39.530Z,61.52
2018-09-30T20:12:18.522Z,70.51
2018-09-30T20:27:53.762Z,70.19
2018-09-30T20:45:09.764Z,68.98
2018-09-30T20:47:36.388Z,69.38
2018-09-30T20:52:41.753Z,66.91
2018-09-30T21:09:19.999Z,66.30
2018-09-30T21:11:46.983Z,67.71
2018-09-30T21:14:15.481Z,69.27
2018-09-30T21:16:42.287Z,68.35
2018-09-30T21:19:08.856Z,68.55
2018-09-30T21:21:37.236Z,69.76
2018-09-30T21:24:03.765Z,72.09
2018-09-30T22:13:22.929Z,64.35
2018-09-30T22:19:11.701Z,65.29
2018-09-30T22:21:38.881Z,65.13
2018-09-30T22:24:06.694Z,65.36
2018-09-30T22:55:45.324Z,69.29
2018-09-30T22:58:12.637Z,71.13
2018-09-30T23:00:39.607Z,70.99
2018-09-30T23:03:07.274Z,70.55
2018-09-30T23:05:34.557Z,70.67
2018-09-30T23:08:01.532Z,70.65
2018-09-30T23:10:29.450Z,70.77
2018-09-30T23:12:56.021Z,70.87
2018-09-30T23:15:22.888Z,71.56
2018-09-30T23:17:49.390Z,71.33
2018-09-30T23:20:19.636Z,71.22
2018-09-30T23:22:46.137Z,71.22
2018-09-30T23:28:35.993Z,71.48
